Time;durP1;ratioP1;P1;durP2;ratioP2;P2;SDS_P1;SDS_P2;PMS_P1;PMS_P2;Temp;Humidity;BMP_temperature;BMP_pressure;BME280_temperature;BME280_humidity;BME280_pressure;Samples;Min_cycle;Max_cycle;Signal;HPM_P1;HPM_P2
2022/07/25 00:02:00;;;;;;;;;;;22.50;96.40;;;;;;5044693;28;20008;-62
2022/07/25 00:04:28;;;;;;;;;;;22.50;96.10;;;;;;5036858;28;20116;-62
2022/07/25 00:06:57;;;;;;;;;;;22.70;95.50;;;;;;5042556;28;19995;-63
2022/07/25 00:09:25;;;;;;;;;;;22.80;95.40;;;;;;5041726;28;20426;-62
2022/07/25 00:11:53;;;;;;;;;;;22.90;95.00;;;;;;5038695;28;19971;-62
2022/07/25 00:14:21;;;;;;;;;;;22.90;95.00;;;;;;5046166;28;20059;-62
2022/07/25 00:16:48;;;;;;;;;;;23.00;95.10;;;;;;5043144;28;20036;-62
2022/07/25 00:19:16;;;;;;;;;;;23.00;95.40;;;;;;5037310;28;20022;-63
2022/07/25 00:21:44;;;;;;;;;;;22.90;96.00;;;;;;5041467;28;20077;-63
2022/07/25 00:24:13;;;;;;;;;;;22.80;96.20;;;;;;5037236;28;19965;-63
2022/07/25 00:26:41;;;;;;;;;;;22.70;96.30;;;;;;5041078;28;20027;-63
2022/07/25 00:29:09;;;;;;;;;;;22.70;96.50;;;;;;5040692;28;20036;-63
2022/07/25 00:31:37;;;;;;;;;;;22.60;96.90;;;;;;5044009;28;19972;-62
2022/07/25 00:34:05;;;;;;;;;;;22.70;96.80;;;;;;5034940;28;20001;-62
2022/07/25 00:36:33;;;;;;;;;;;22.70;96.50;;;;;;5038101;28;20014;-63
2022/07/25 00:39:01;;;;;;;;;;;22.60;97.00;;;;;;5033564;28;19970;-63
2022/07/25 00:41:30;;;;;;;;;;;22.60;97.30;;;;;;5042533;28;20350;-63
2022/07/25 00:43:58;;;;;;;;;;;22.60;97.50;;;;;;5052122;28;19976;-62
2022/07/25 00:46:26;;;;;;;;;;;22.50;97.50;;;;;;5033142;28;19965;-62
2022/07/25 00:48:54;;;;;;;;;;;22.40;97.30;;;;;;5042149;28;20301;-63
2022/07/25 00:51:22;;;;;;;;;;;22.30;97.60;;;;;;5038770;28;20666;-63
2022/07/25 00:53:50;;;;;;;;;;;22.20;97.90;;;;;;5038736;28;20084;-63
2022/07/25 00:56:18;;;;;;;;;;;22.10;98.30;;;;;;5040300;28;20154;-63
2022/07/25 00:58:47;;;;;;;;;;;22.20;98.10;;;;;;5038221;28;20053;-63
2022/07/25 01:01:15;;;;;;;;;;;22.10;97.80;;;;;;5034848;28;19988;-62
2022/07/25 01:03:43;;;;;;;;;;;22.10;97.70;;;;;;5046657;28;20204;-62
2022/07/25 01:06:11;;;;;;;;;;;22.10;98.10;;;;;;5035889;28;20501;-62
2022/07/25 01:08:39;;;;;;;;;;;22.00;98.00;;;;;;5037884;28;20018;-64
2022/07/25 01:11:09;;;;;;;;;;;22.00;98.00;;;;;;5035943;28;21204;-65
2022/07/25 01:13:37;;;;;;;;;;;22.00;97.90;;;;;;5043177;28;20061;-65
2022/07/25 01:16:06;;;;;;;;;;;22.00;98.20;;;;;;5049174;28;20081;-66
2022/07/25 01:18:34;;;;;;;;;;;22.00;98.00;;;;;;5040749;28;20364;-64
2022/07/25 01:21:03;;;;;;;;;;;22.00;98.00;;;;;;5041849;28;20023;-62
2022/07/25 01:23:31;;;;;;;;;;;21.90;98.20;;;;;;5037909;28;19969;-63
2022/07/25 01:25:59;;;;;;;;;;;22.00;98.20;;;;;;5040900;28;19989;-62
2022/07/25 01:28:27;;;;;;;;;;;22.00;98.60;;;;;;5041528;28;20462;-63
2022/07/25 01:30:54;;;;;;;;;;;21.90;98.60;;;;;;5043127;28;21281;-63
2022/07/25 01:33:22;;;;;;;;;;;21.90;99.00;;;;;;5038403;28;20909;-62
2022/07/25 01:35:50;;;;;;;;;;;21.80;99.30;;;;;;5035965;28;19984;-63
2022/07/25 01:38:19;;;;;;;;;;;21.80;99.30;;;;;;5039612;28;19965;-63
2022/07/25 01:40:47;;;;;;;;;;;21.80;99.40;;;;;;5040777;28;19970;-63
2022/07/25 01:43:15;;;;;;;;;;;21.80;99.40;;;;;;5041345;28;20027;-63
2022/07/25 01:45:42;;;;;;;;;;;21.70;99.50;;;;;;5050988;28;19972;-63
2022/07/25 01:48:10;;;;;;;;;;;21.70;99.90;;;;;;5041340;28;19982;-62
2022/07/25 01:50:38;;;;;;;;;;;21.70;99.90;;;;;;5040107;28;19971;-63
2022/07/25 01:53:06;;;;;;;;;;;21.70;99.70;;;;;;5046161;28;20048;-62
2022/07/25 01:55:35;;;;;;;;;;;21.70;99.90;;;;;;5043416;28;20016;-63
2022/07/25 01:58:03;;;;;;;;;;;21.60;99.90;;;;;;5047576;28;19966;-63
2022/07/25 02:00:32;;;;;;;;;;;21.60;99.90;;;;;;5043300;28;20440;-63
2022/07/25 02:05:46;;;;;;;;;;;21.60;99.90;;;;;;5039557;28;20508;-63
2022/07/25 02:08:13;;;;;;;;;;;21.50;99.90;;;;;;5044104;28;20061;-63
2022/07/25 02:10:43;;;;;;;;;;;21.50;99.90;;;;;;5041151;28;20009;-63
2022/07/25 02:13:10;;;;;;;;;;;21.50;99.90;;;;;;5047699;28;20053;-63
2022/07/25 02:15:38;;;;;;;;;;;21.60;99.90;;;;;;5041120;28;19964;-63
2022/07/25 02:18:06;;;;;;;;;;;21.50;99.90;;;;;;5042778;28;19975;-64
2022/07/25 02:20:34;;;;;;;;;;;21.50;99.90;;;;;;5039056;28;20011;-64
2022/07/25 02:23:02;;;;;;;;;;;21.50;99.90;;;;;;5043324;28;19968;-63
2022/07/25 02:25:30;;;;;;;;;;;21.40;99.90;;;;;;5034359;28;19968;-63
2022/07/25 02:27:59;;;;;;;;;;;21.30;99.90;;;;;;5045154;28;19967;-63
2022/07/25 02:30:27;;;;;;;;;;;21.30;99.90;;;;;;5039162;28;20054;-63
2022/07/25 02:32:55;;;;;;;;;;;21.20;99.90;;;;;;5045166;28;19960;-64
2022/07/25 02:35:23;;;;;;;;;;;21.20;99.90;;;;;;5038878;28;19969;-63
2022/07/25 02:37:51;;;;;;;;;;;21.10;99.90;;;;;;5044969;28;19968;-63
2022/07/25 02:40:19;;;;;;;;;;;21.10;99.90;;;;;;5046699;28;20019;-63
2022/07/25 02:42:46;;;;;;;;;;;21.10;99.90;;;;;;5036781;28;19965;-64
2022/07/25 02:45:15;;;;;;;;;;;21.00;99.90;;;;;;5050298;28;19962;-64
2022/07/25 02:47:43;;;;;;;;;;;21.00;99.90;;;;;;5041841;28;19966;-64
2022/07/25 02:50:11;;;;;;;;;;;21.00;99.90;;;;;;5041003;28;20766;-64
2022/07/25 02:52:41;;;;;;;;;;;21.10;99.90;;;;;;5042520;28;19971;-64
2022/07/25 02:55:10;;;;;;;;;;;21.10;99.90;;;;;;5046831;28;19962;-63
2022/07/25 02:57:38;;;;;;;;;;;21.20;99.90;;;;;;5039533;28;20474;-63
2022/07/25 03:00:07;;;;;;;;;;;21.20;99.90;;;;;;5040452;28;20499;-63
2022/07/25 03:02:36;;;;;;;;;;;21.20;99.90;;;;;;5036580;28;19968;-64
2022/07/25 03:05:05;;;;;;;;;;;21.20;99.90;;;;;;5041262;28;19967;-63
2022/07/25 03:07:33;;;;;;;;;;;21.20;99.90;;;;;;5036931;28;20010;-63
2022/07/25 03:10:01;;;;;;;;;;;21.20;99.90;;;;;;5053836;23;20518;-64
2022/07/25 03:12:35;;;;;;;;;;;21.10;99.90;;;;;;5018881;28;19966;-64
2022/07/25 03:15:04;;;;;;;;;;;21.10;99.90;;;;;;5015259;28;20020;-63
2022/07/25 03:17:32;;;;;;;;;;;21.10;99.90;;;;;;5029862;28;19974;-64
2022/07/25 03:20:01;;;;;;;;;;;21.10;99.90;;;;;;5026622;28;20109;-64
2022/07/25 03:22:29;;;;;;;;;;;21.00;99.90;;;;;;5033161;28;19993;-65
2022/07/25 03:24:57;;;;;;;;;;;21.00;99.90;;;;;;5028075;28;19978;-64
2022/07/25 03:27:24;;;;;;;;;;;20.80;99.90;;;;;;5028406;28;19970;-65
2022/07/25 03:29:53;;;;;;;;;;;20.80;99.90;;;;;;5025939;28;19972;-64
2022/07/25 03:32:22;;;;;;;;;;;20.80;99.90;;;;;;5019594;28;20030;-65
2022/07/25 03:34:49;;;;;;;;;;;20.80;99.90;;;;;;5014067;28;19969;-65
2022/07/25 03:37:18;;;;;;;;;;;20.90;99.90;;;;;;5020633;28;20462;-63
2022/07/25 03:39:46;;;;;;;;;;;21.00;99.90;;;;;;5032854;28;19978;-63
2022/07/25 03:42:14;;;;;;;;;;;21.00;99.90;;;;;;5023070;28;20658;-64
2022/07/25 03:44:42;;;;;;;;;;;21.00;99.90;;;;;;5024125;28;20684;-64
2022/07/25 03:47:09;;;;;;;;;;;21.10;99.90;;;;;;5023678;28;20489;-64
2022/07/25 03:49:47;;;;;;;;;;;21.10;99.90;;;;;;5021322;28;19973;-65
2022/07/25 03:52:15;;;;;;;;;;;21.10;99.90;;;;;;5028173;28;20303;-64
2022/07/25 03:54:44;;;;;;;;;;;21.20;99.90;;;;;;5016322;28;19969;-64
2022/07/25 03:57:12;;;;;;;;;;;21.20;99.90;;;;;;5021335;28;19977;-64
2022/07/25 03:59:39;;;;;;;;;;;21.30;99.90;;;;;;5021238;28;19976;-64
2022/07/25 04:02:07;;;;;;;;;;;21.30;99.90;;;;;;5022329;28;20004;-64
2022/07/25 04:04:35;;;;;;;;;;;21.30;99.90;;;;;;5021108;28;19977;-64
2022/07/25 04:07:04;;;;;;;;;;;21.30;99.90;;;;;;5030410;28;19980;-64
2022/07/25 04:09:31;;;;;;;;;;;21.30;99.90;;;;;;5030045;28;20416;-64
2022/07/25 04:12:03;;;;;;;;;;;21.30;99.90;;;;;;5027459;28;20002;-63
2022/07/25 04:14:30;;;;;;;;;;;21.30;99.90;;;;;;5013757;28;20021;-64
2022/07/25 04:16:58;;;;;;;;;;;21.30;99.90;;;;;;5026273;28;19973;-64
2022/07/25 04:19:26;;;;;;;;;;;21.20;99.90;;;;;;5035011;28;19973;-63
2022/07/25 04:21:55;;;;;;;;;;;21.30;99.90;;;;;;5027310;28;19976;-67
2022/07/25 04:24:23;;;;;;;;;;;21.30;99.90;;;;;;5023798;28;19979;-66
2022/07/25 04:26:51;;;;;;;;;;;21.30;99.90;;;;;;5021710;28;20401;-66
2022/07/25 04:29:20;;;;;;;;;;;21.30;99.90;;;;;;5027964;28;19969;-66
2022/07/25 04:31:47;;;;;;;;;;;21.30;99.90;;;;;;5018619;28;20034;-67
2022/07/25 04:34:15;;;;;;;;;;;21.30;99.90;;;;;;5021143;28;19973;-67
2022/07/25 04:36:43;;;;;;;;;;;21.20;99.90;;;;;;5013777;28;21746;-67
2022/07/25 04:39:11;;;;;;;;;;;21.20;99.90;;;;;;5017265;28;20028;-67
2022/07/25 04:41:39;;;;;;;;;;;21.20;99.90;;;;;;5011733;28;19982;-69
2022/07/25 04:44:07;;;;;;;;;;;21.30;99.90;;;;;;5012352;28;19972;-67
2022/07/25 04:46:37;;;;;;;;;;;21.30;99.90;;;;;;5011317;28;19988;-66
2022/07/25 04:49:05;;;;;;;;;;;21.40;99.90;;;;;;5016502;28;20856;-66
2022/07/25 04:51:32;;;;;;;;;;;21.40;99.90;;;;;;5015927;28;19971;-67
2022/07/25 04:54:00;;;;;;;;;;;21.50;99.90;;;;;;5014705;28;20051;-67
2022/07/25 04:56:28;;;;;;;;;;;21.50;99.90;;;;;;5013627;28;20357;-67
2022/07/25 04:58:56;;;;;;;;;;;21.60;99.90;;;;;;5005885;28;20093;-67
2022/07/25 05:01:29;;;;;;;;;;;21.60;99.90;;;;;;5010890;28;20695;-68
2022/07/25 05:03:59;;;;;;;;;;;21.70;99.90;;;;;;5012339;28;20026;-69
2022/07/25 05:06:26;;;;;;;;;;;21.70;99.90;;;;;;5012041;28;19980;-68
2022/07/25 05:08:54;;;;;;;;;;;21.80;99.90;;;;;;5012284;28;19984;-65
2022/07/25 05:11:22;;;;;;;;;;;21.80;99.90;;;;;;5013115;28;19973;-65
2022/07/25 05:13:50;;;;;;;;;;;21.80;99.90;;;;;;5007363;28;19974;-66
2022/07/25 05:16:18;;;;;;;;;;;21.80;99.90;;;;;;5010382;28;20888;-65
2022/07/25 05:18:46;;;;;;;;;;;21.90;99.90;;;;;;5014822;28;20037;-67
2022/07/25 05:21:15;;;;;;;;;;;22.00;99.90;;;;;;5017147;28;20063;-68
2022/07/25 05:23:43;;;;;;;;;;;22.10;99.90;;;;;;5011572;28;20006;-66
2022/07/25 05:26:10;;;;;;;;;;;22.20;99.90;;;;;;5018166;28;19975;-66
2022/07/25 05:28:38;;;;;;;;;;;22.20;99.90;;;;;;5018571;28;20003;-68
2022/07/25 05:31:06;;;;;;;;;;;22.30;99.90;;;;;;5017917;28;20059;-68
2022/07/25 05:33:34;;;;;;;;;;;22.30;99.90;;;;;;5016429;28;20259;-68
2022/07/25 05:36:03;;;;;;;;;;;22.40;99.90;;;;;;5007338;28;21220;-66
2022/07/25 05:38:33;;;;;;;;;;;22.50;99.90;;;;;;5016476;28;20548;-69
2022/07/25 05:41:01;;;;;;;;;;;22.60;99.90;;;;;;5015929;28;20054;-67
2022/07/25 05:43:28;;;;;;;;;;;22.70;99.90;;;;;;5014911;28;20051;-69
2022/07/25 05:45:59;;;;;;;;;;;22.80;99.90;;;;;;5015920;28;20136;-67
2022/07/25 05:48:27;;;;;;;;;;;22.80;99.90;;;;;;5013873;28;20672;-66
2022/07/25 05:50:55;;;;;;;;;;;22.90;99.90;;;;;;5019855;28;20376;-65
2022/07/25 05:53:23;;;;;;;;;;;23.00;99.90;;;;;;5015510;28;20349;-65
2022/07/25 05:55:52;;;;;;;;;;;23.00;99.90;;;;;;5011641;28;20928;-65
2022/07/25 05:58:20;;;;;;;;;;;23.00;99.90;;;;;;5016744;28;20843;-65
2022/07/25 06:00:54;;;;;;;;;;;23.10;99.90;;;;;;5011799;28;20877;-66
2022/07/25 06:03:22;;;;;;;;;;;23.20;99.90;;;;;;5010783;28;20565;-65
2022/07/25 06:05:50;;;;;;;;;;;23.30;99.90;;;;;;5008830;28;21813;-66
2022/07/25 06:08:17;;;;;;;;;;;23.40;99.90;;;;;;5007382;28;20035;-65
2022/07/25 06:10:45;;;;;;;;;;;23.50;99.90;;;;;;5014001;28;19979;-66
2022/07/25 06:13:14;;;;;;;;;;;23.60;99.90;;;;;;5012836;28;20263;-65
2022/07/25 06:15:42;;;;;;;;;;;23.70;99.90;;;;;;5011511;28;20483;-65
2022/07/25 06:18:12;;;;;;;;;;;23.70;99.90;;;;;;5012191;28;20013;-65
2022/07/25 06:20:40;;;;;;;;;;;23.80;99.90;;;;;;5014702;28;21171;-65
2022/07/25 06:23:07;;;;;;;;;;;23.90;99.90;;;;;;5013302;28;20364;-66
2022/07/25 06:25:35;;;;;;;;;;;24.00;99.90;;;;;;5012582;28;25060;-64
2022/07/25 06:28:03;;;;;;;;;;;24.00;99.90;;;;;;5025539;28;20635;-64
2022/07/25 06:30:32;;;;;;;;;;;24.10;99.90;;;;;;5021857;28;20004;-63
2022/07/25 06:33:00;;;;;;;;;;;24.30;99.90;;;;;;5020817;28;21117;-63
2022/07/25 06:35:28;;;;;;;;;;;24.40;99.90;;;;;;5014772;28;20334;-64
2022/07/25 06:37:56;;;;;;;;;;;24.60;99.90;;;;;;5014619;28;20887;-64
2022/07/25 06:40:24;;;;;;;;;;;24.80;99.90;;;;;;5014691;28;20063;-63
2022/07/25 06:42:52;;;;;;;;;;;24.90;99.90;;;;;;5019906;28;20301;-64
2022/07/25 06:45:20;;;;;;;;;;;25.00;99.90;;;;;;5015696;28;20622;-64
2022/07/25 06:47:49;;;;;;;;;;;25.10;99.90;;;;;;5014633;28;20723;-64
2022/07/25 06:50:18;;;;;;;;;;;25.20;99.90;;;;;;5014302;28;20056;-64
2022/07/25 06:52:48;;;;;;;;;;;25.30;99.90;;;;;;5026989;28;20432;-64
2022/07/25 06:55:16;;;;;;;;;;;25.40;99.90;;;;;;5033498;28;20012;-64
2022/07/25 06:57:43;;;;;;;;;;;25.60;99.90;;;;;;5017104;28;20414;-64
2022/07/25 07:00:12;;;;;;;;;;;25.60;99.90;;;;;;5026894;28;20023;-64
2022/07/25 07:02:51;;;;;;;;;;;25.70;99.90;;;;;;5033331;28;20368;-64
2022/07/25 07:05:20;;;;;;;;;;;25.80;99.90;;;;;;5033262;28;19996;-64
2022/07/25 07:07:48;;;;;;;;;;;26.00;99.90;;;;;;5033005;28;21142;-64
2022/07/25 07:10:16;;;;;;;;;;;26.00;99.90;;;;;;5032597;28;20031;-64
2022/07/25 07:12:43;;;;;;;;;;;26.10;99.90;;;;;;5023673;28;20423;-64
2022/07/25 07:15:11;;;;;;;;;;;26.30;99.90;;;;;;5023643;28;20106;-64
2022/07/25 07:17:39;;;;;;;;;;;26.40;99.90;;;;;;5013908;28;20275;-64
2022/07/25 07:20:09;;;;;;;;;;;26.50;99.50;;;;;;5013870;28;20811;-64
2022/07/25 07:22:44;;;;;;;;;;;26.50;99.50;;;;;;5013547;28;21022;-64
2022/07/25 07:25:12;;;;;;;;;;;26.60;99.90;;;;;;5013680;28;20024;-64
2022/07/25 07:27:40;;;;;;;;;;;26.80;99.90;;;;;;5013901;28;20408;-64
2022/07/25 07:30:09;;;;;;;;;;;26.90;98.90;;;;;;5013542;28;20142;-64
2022/07/25 07:32:38;;;;;;;;;;;26.90;99.40;;;;;;5013465;28;19998;-64
2022/07/25 07:35:06;;;;;;;;;;;27.10;99.00;;;;;;5013551;28;20077;-63
2022/07/25 07:37:35;;;;;;;;;;;27.00;98.90;;;;;;5013378;28;20855;-64
2022/07/25 07:40:10;;;;;;;;;;;27.20;98.60;;;;;;5013528;28;20122;-64
2022/07/25 07:42:45;;;;;;;;;;;27.20;98.80;;;;;;5020490;28;19981;-64
2022/07/25 07:45:14;;;;;;;;;;;27.50;99.80;;;;;;5016438;28;20496;-64
2022/07/25 07:47:42;;;;;;;;;;;27.60;98.70;;;;;;5013167;28;20720;-63
2022/07/25 07:50:10;;;;;;;;;;;27.70;98.90;;;;;;5013125;28;20746;-63
2022/07/25 07:52:39;;;;;;;;;;;27.90;99.20;;;;;;5013098;28;21528;-64
2022/07/25 07:57:52;;;;;;;;;;;28.00;98.60;;;;;;5026114;28;20104;-64
2022/07/25 08:00:20;;;;;;;;;;;28.00;98.50;;;;;;5032078;28;20219;-63
2022/07/25 08:02:49;;;;;;;;;;;28.00;98.20;;;;;;5018532;28;20011;-64
2022/07/25 08:05:21;;;;;;;;;;;28.00;98.10;;;;;;5013004;28;20493;-64
2022/07/25 08:07:51;;;;;;;;;;;28.20;98.60;;;;;;5012732;28;20031;-64
2022/07/25 08:10:20;;;;;;;;;;;28.30;98.30;;;;;;5012589;28;21101;-64
2022/07/25 08:12:48;;;;;;;;;;;28.50;97.40;;;;;;5018480;28;21164;-64
2022/07/25 08:15:17;;;;;;;;;;;28.60;97.50;;;;;;5018001;28;20158;-64
2022/07/25 08:17:45;;;;;;;;;;;28.80;97.70;;;;;;5012979;28;20118;-64
2022/07/25 08:20:13;;;;;;;;;;;29.10;97.40;;;;;;5012762;28;20014;-64
2022/07/25 08:23:03;;;;;;;;;;;29.20;97.70;;;;;;5012567;28;20618;-64
2022/07/25 08:25:31;;;;;;;;;;;29.50;96.60;;;;;;5012750;28;20155;-64
2022/07/25 08:27:59;;;;;;;;;;;29.70;96.40;;;;;;5012748;28;20502;-64
2022/07/25 08:30:27;;;;;;;;;;;29.80;96.50;;;;;;5012441;28;21209;-64
2022/07/25 08:32:56;;;;;;;;;;;29.90;95.70;;;;;;5012522;28;20322;-64
2022/07/25 08:35:24;;;;;;;;;;;30.00;95.70;;;;;;5012460;28;20361;-64
2022/07/25 08:37:52;;;;;;;;;;;30.20;95.30;;;;;;5012851;28;20420;-64
2022/07/25 08:40:22;;;;;;;;;;;30.40;95.30;;;;;;5012349;28;20118;-64
2022/07/25 08:42:50;;;;;;;;;;;30.60;95.20;;;;;;5019743;28;20236;-64
2022/07/25 08:45:19;;;;;;;;;;;30.40;94.30;;;;;;5016061;28;20670;-64
2022/07/25 08:47:47;;;;;;;;;;;30.50;94.30;;;;;;5012578;28;20717;-64
2022/07/25 08:50:15;;;;;;;;;;;30.80;93.90;;;;;;5012323;28;20103;-64
2022/07/25 08:52:44;;;;;;;;;;;30.90;93.80;;;;;;5011500;28;20507;-64
2022/07/25 08:55:13;;;;;;;;;;;31.00;93.50;;;;;;5012477;28;20311;-64
2022/07/25 08:57:43;;;;;;;;;;;31.00;93.40;;;;;;5012322;28;25106;-64
2022/07/25 09:00:12;;;;;;;;;;;31.30;93.50;;;;;;5012177;28;20294;-64
2022/07/25 09:02:40;;;;;;;;;;;31.50;93.40;;;;;;5011929;28;20717;-64
2022/07/25 09:05:08;;;;;;;;;;;31.60;92.80;;;;;;5012263;28;19991;-64
2022/07/25 09:07:37;;;;;;;;;;;31.60;92.90;;;;;;5012009;28;20625;-64
2022/07/25 09:10:11;;;;;;;;;;;31.70;93.30;;;;;;5056391;23;20355;-65
2022/07/25 09:12:39;;;;;;;;;;;31.90;92.60;;;;;;5041693;28;20688;-65
2022/07/25 09:15:09;;;;;;;;;;;32.30;92.90;;;;;;5044953;28;21031;-65
2022/07/25 09:17:49;;;;;;;;;;;32.70;92.80;;;;;;5031937;28;20734;-65
2022/07/25 09:20:17;;;;;;;;;;;33.00;91.90;;;;;;5031039;28;25071;-65
2022/07/25 09:22:45;;;;;;;;;;;33.20;91.30;;;;;;5031305;28;20178;-65
2022/07/25 09:25:23;;;;;;;;;;;33.00;91.10;;;;;;5031438;28;20159;-66
2022/07/25 09:27:51;;;;;;;;;;;33.00;90.80;;;;;;5031468;28;20424;-66
2022/07/25 09:30:20;;;;;;;;;;;33.00;91.10;;;;;;5031388;28;20453;-66
2022/07/25 09:32:58;;;;;;;;;;;33.30;90.90;;;;;;5031313;28;20399;-66
2022/07/25 09:35:29;;;;;;;;;;;33.20;90.90;;;;;;5031439;28;20755;-66
2022/07/25 09:38:06;;;;;;;;;;;33.40;90.60;;;;;;5030829;28;20200;-66
2022/07/25 09:40:34;;;;;;;;;;;33.70;90.30;;;;;;5031562;28;20309;-66
2022/07/25 09:43:01;;;;;;;;;;;33.70;90.30;;;;;;5030768;28;20102;-67
2022/07/25 09:45:31;;;;;;;;;;;34.00;90.90;;;;;;5029452;28;25158;-66
2022/07/25 09:47:59;;;;;;;;;;;34.60;89.80;;;;;;5030672;28;20260;-66
2022/07/25 09:50:28;;;;;;;;;;;34.60;89.20;;;;;;5024558;28;20712;-66
2022/07/25 09:52:57;;;;;;;;;;;34.60;89.60;;;;;;5024465;28;20080;-66
2022/07/25 09:55:25;;;;;;;;;;;34.60;88.80;;;;;;5024820;28;20104;-66
2022/07/25 09:57:52;;;;;;;;;;;34.60;87.70;;;;;;5024476;28;21258;-66
2022/07/25 10:00:22;;;;;;;;;;;34.20;88.00;;;;;;5024617;28;21257;-64
2022/07/25 10:02:56;;;;;;;;;;;34.00;88.60;;;;;;5031048;28;20647;-66
2022/07/25 10:05:30;;;;;;;;;;;34.00;88.90;;;;;;5028347;28;25166;-66
2022/07/25 10:07:58;;;;;;;;;;;34.20;88.80;;;;;;5034626;28;20117;-65
2022/07/25 10:10:27;;;;;;;;;;;34.60;88.40;;;;;;5034079;28;20308;-66
2022/07/25 10:12:59;;;;;;;;;;;34.60;88.20;;;;;;5034406;28;20227;-66
2022/07/25 10:15:38;;;;;;;;;;;34.80;89.20;;;;;;5034366;28;20442;-66
2022/07/25 10:18:08;;;;;;;;;;;34.90;87.10;;;;;;5031800;28;20212;-66
2022/07/25 10:20:36;;;;;;;;;;;35.10;87.10;;;;;;5034225;28;20877;-66
2022/07/25 10:23:04;;;;;;;;;;;35.00;86.50;;;;;;5034442;28;20144;-66
2022/07/25 10:25:32;;;;;;;;;;;35.00;86.30;;;;;;5034306;28;20880;-66
2022/07/25 10:28:07;;;;;;;;;;;35.20;85.80;;;;;;5034096;28;20747;-66
2022/07/25 10:30:36;;;;;;;;;;;35.30;84.80;;;;;;5034318;28;20229;-66
2022/07/25 10:33:05;;;;;;;;;;;35.40;86.50;;;;;;5033535;28;25116;-67
2022/07/25 10:35:34;;;;;;;;;;;35.60;84.70;;;;;;5034558;28;20161;-66
2022/07/25 10:38:03;;;;;;;;;;;35.90;84.70;;;;;;5033856;28;21418;-66
2022/07/25 10:40:35;;;;;;;;;;;36.10;84.60;;;;;;5033476;28;20641;-66
2022/07/25 10:43:12;;;;;;;;;;;36.00;85.00;;;;;;5034265;28;20509;-65
2022/07/25 10:45:41;;;;;;;;;;;36.00;82.20;;;;;;5030575;28;21129;-66
2022/07/25 10:48:10;;;;;;;;;;;35.80;81.90;;;;;;5033382;28;26152;-66
2022/07/25 10:50:56;;;;;;;;;;;35.50;82.50;;;;;;5033696;28;20224;-66
2022/07/25 10:53:31;;;;;;;;;;;35.70;83.00;;;;;;5033699;28;20339;-67
2022/07/25 10:56:03;;;;;;;;;;;35.90;82.80;;;;;;5033748;28;25085;-66
2022/07/25 10:58:47;;;;;;;;;;;36.10;81.30;;;;;;5033405;28;20494;-66
2022/07/25 11:01:18;;;;;;;;;;;36.30;81.40;;;;;;5027638;28;20312;-66
2022/07/25 11:03:46;;;;;;;;;;;36.50;81.40;;;;;;5027701;28;20283;-66
2022/07/25 11:06:16;;;;;;;;;;;36.50;81.00;;;;;;5033885;28;25080;-66
2022/07/25 11:08:44;;;;;;;;;;;36.50;80.00;;;;;;5033053;28;20226;-66
2022/07/25 11:11:12;;;;;;;;;;;36.60;80.00;;;;;;5033552;28;20280;-66
2022/07/25 11:13:43;;;;;;;;;;;36.60;80.00;;;;;;5032926;28;25096;-66
2022/07/25 11:16:10;;;;;;;;;;;36.20;80.00;;;;;;5032945;28;20399;-66
2022/07/25 11:18:40;;;;;;;;;;;36.30;80.50;;;;;;5032929;28;19925;-66
2022/07/25 11:21:08;;;;;;;;;;;36.50;79.50;;;;;;5033120;28;25053;-66
2022/07/25 11:23:40;;;;;;;;;;;36.80;80.80;;;;;;5033318;28;20849;-66
2022/07/25 11:26:09;;;;;;;;;;;36.70;79.20;;;;;;5033103;28;25062;-66
2022/07/25 11:28:40;;;;;;;;;;;36.60;78.60;;;;;;5033166;28;20401;-66
2022/07/25 11:31:08;;;;;;;;;;;36.70;79.80;;;;;;5033105;28;20971;-66
2022/07/25 11:33:36;;;;;;;;;;;37.20;78.30;;;;;;5032642;28;20625;-66
2022/07/25 11:36:06;;;;;;;;;;;37.40;77.50;;;;;;5033114;28;20225;-67
2022/07/25 11:38:35;;;;;;;;;;;37.90;77.30;;;;;;5032626;28;20280;-66
2022/07/25 11:41:04;;;;;;;;;;;38.00;76.50;;;;;;5032978;28;20307;-66
2022/07/25 11:43:32;;;;;;;;;;;38.10;77.50;;;;;;5032554;28;20261;-66
2022/07/25 11:46:01;;;;;;;;;;;37.90;76.50;;;;;;5032528;28;20719;-67
2022/07/25 11:48:31;;;;;;;;;;;37.50;75.40;;;;;;5032331;28;25098;-66
2022/07/25 11:51:08;;;;;;;;;;;36.90;73.80;;;;;;5032711;28;20212;-66
2022/07/25 11:53:40;;;;;;;;;;;36.40;75.00;;;;;;5032318;28;25071;-67
2022/07/25 11:56:16;;;;;;;;;;;36.00;73.80;;;;;;5032727;28;20781;-66
2022/07/25 11:59:04;;;;;;;;;;;36.10;72.80;;;;;;5032154;28;25105;-66
2022/07/25 12:01:36;;;;;;;;;;;36.40;72.40;;;;;;5032503;28;20410;-66
2022/07/25 12:04:07;;;;;;;;;;;36.30;72.40;;;;;;5032282;28;20754;-67
2022/07/25 12:06:35;;;;;;;;;;;36.30;71.60;;;;;;5032374;28;20856;-67
2022/07/25 12:09:10;;;;;;;;;;;36.10;72.60;;;;;;5031968;28;20982;-66
2022/07/25 12:11:46;;;;;;;;;;;36.10;73.20;;;;;;5032521;28;21028;-66
2022/07/25 12:14:14;;;;;;;;;;;36.20;74.10;;;;;;5032231;28;20519;-67
2022/07/25 12:16:42;;;;;;;;;;;36.30;74.50;;;;;;5031938;28;20804;-65
2022/07/25 12:19:17;;;;;;;;;;;37.00;74.60;;;;;;5031881;28;25074;-66
2022/07/25 12:21:45;;;;;;;;;;;37.00;71.50;;;;;;5032067;28;20137;-66
2022/07/25 12:24:13;;;;;;;;;;;36.90;71.70;;;;;;5031860;28;20615;-67
2022/07/25 12:26:41;;;;;;;;;;;36.90;71.40;;;;;;5031392;28;20065;-67
2022/07/25 12:29:10;;;;;;;;;;;37.00;71.70;;;;;;5031705;28;20387;-66
2022/07/25 12:31:38;;;;;;;;;;;36.80;70.90;;;;;;5031946;28;20206;-67
2022/07/25 12:34:05;;;;;;;;;;;36.50;71.80;;;;;;5031705;28;20213;-66
2022/07/25 12:36:39;;;;;;;;;;;36.50;71.80;;;;;;5031972;28;20265;-67
2022/07/25 12:39:07;;;;;;;;;;;36.40;71.90;;;;;;5031949;28;20664;-66
2022/07/25 12:41:36;;;;;;;;;;;36.30;71.50;;;;;;5025691;28;20719;-67
2022/07/25 12:44:04;;;;;;;;;;;36.20;71.30;;;;;;5025131;28;20288;-66
2022/07/25 12:46:33;;;;;;;;;;;36.10;71.40;;;;;;5027140;28;25072;-66
2022/07/25 12:49:02;;;;;;;;;;;35.90;72.60;;;;;;5025343;28;20262;-67
2022/07/25 12:51:30;;;;;;;;;;;35.80;72.50;;;;;;5025302;28;25129;-66
2022/07/25 12:53:58;;;;;;;;;;;35.60;72.70;;;;;;5031487;28;20640;-66
2022/07/25 12:56:26;;;;;;;;;;;35.30;72.50;;;;;;5031874;28;20854;-66
2022/07/25 12:58:54;;;;;;;;;;;35.10;72.90;;;;;;5025182;28;25064;-67
2022/07/25 13:01:22;;;;;;;;;;;34.90;73.50;;;;;;5025673;28;20003;-66
2022/07/25 13:03:51;;;;;;;;;;;34.70;73.70;;;;;;5025253;28;20466;-66
2022/07/25 13:06:19;;;;;;;;;;;34.60;74.10;;;;;;5025468;28;25075;-66
2022/07/25 13:08:47;;;;;;;;;;;34.60;73.80;;;;;;5031099;28;20353;-67
2022/07/25 13:11:15;;;;;;;;;;;34.80;74.00;;;;;;5031566;28;20231;-66
2022/07/25 13:13:42;;;;;;;;;;;35.00;73.60;;;;;;5030834;28;20246;-66
2022/07/25 13:16:10;;;;;;;;;;;35.10;73.00;;;;;;5025148;28;20649;-67
2022/07/25 13:18:38;;;;;;;;;;;34.70;72.70;;;;;;5027649;28;20304;-66
2022/07/25 13:21:07;;;;;;;;;;;34.20;73.50;;;;;;5025161;28;20612;-66
2022/07/25 13:23:35;;;;;;;;;;;33.80;74.10;;;;;;5031243;28;20166;-66
2022/07/25 13:26:03;;;;;;;;;;;33.40;80.50;;;;;;5031452;28;20308;-66
2022/07/25 13:28:31;;;;;;;;;;;33.00;79.20;;;;;;5024879;28;25091;-66
2022/07/25 13:31:00;;;;;;;;;;;33.00;79.80;;;;;;5025159;28;21324;-66
2022/07/25 13:33:28;;;;;;;;;;;33.00;79.40;;;;;;5025027;28;20482;-66
2022/07/25 13:35:56;;;;;;;;;;;32.90;78.80;;;;;;5031378;28;20733;-65
2022/07/25 13:38:25;;;;;;;;;;;33.40;79.30;;;;;;5032278;28;20123;-66
2022/07/25 13:40:53;;;;;;;;;;;34.00;76.60;;;;;;5035453;28;20332;-65
2022/07/25 13:43:25;;;;;;;;;;;34.30;76.90;;;;;;5034878;28;20694;-67
2022/07/25 13:45:53;;;;;;;;;;;34.30;76.80;;;;;;5034510;28;25088;-66
2022/07/25 13:48:21;;;;;;;;;;;34.50;75.90;;;;;;5034904;28;21254;-66
2022/07/25 13:50:58;;;;;;;;;;;35.00;75.10;;;;;;5034965;28;20703;-66
2022/07/25 13:53:27;;;;;;;;;;;35.60;73.40;;;;;;5034486;28;25082;-66
2022/07/25 13:55:57;;;;;;;;;;;36.20;72.30;;;;;;5035127;28;20098;-65
2022/07/25 13:58:25;;;;;;;;;;;36.70;71.70;;;;;;5034683;28;21138;-66
2022/07/25 14:00:53;;;;;;;;;;;36.90;72.20;;;;;;5034703;28;25081;-66
2022/07/25 14:03:21;;;;;;;;;;;37.20;71.60;;;;;;5035058;28;20235;-66
2022/07/25 14:05:49;;;;;;;;;;;37.10;71.30;;;;;;5034401;28;20405;-66
2022/07/25 14:08:17;;;;;;;;;;;37.20;71.40;;;;;;5034676;28;20959;-66
2022/07/25 14:10:46;;;;;;;;;;;37.10;71.20;;;;;;5034346;28;20320;-66
2022/07/25 14:13:14;;;;;;;;;;;37.20;72.40;;;;;;5034186;28;20957;-66
2022/07/25 14:15:42;;;;;;;;;;;37.00;71.60;;;;;;5034233;28;20844;-66
2022/07/25 14:18:10;;;;;;;;;;;36.70;71.80;;;;;;5034181;28;25060;-65
2022/07/25 14:20:38;;;;;;;;;;;36.60;72.00;;;;;;5034357;28;21082;-66
2022/07/25 14:23:05;;;;;;;;;;;36.30;72.30;;;;;;5034262;28;25056;-67
2022/07/25 14:25:33;;;;;;;;;;;35.90;71.80;;;;;;5034293;28;20590;-66
2022/07/25 14:28:02;;;;;;;;;;;35.70;72.40;;;;;;5034218;28;20823;-66
2022/07/25 14:30:30;;;;;;;;;;;35.40;72.50;;;;;;5034109;28;25067;-66
2022/07/25 14:32:58;;;;;;;;;;;35.10;73.10;;;;;;5034068;28;20317;-67